CheckWX is a tool to help pilots better visualize weather data.  It is not intended as a substitute for an official pre-flight weather briefing.

00:53:17 UTC

GOGS METAR
Cap Skirring Airport
Cap Skirring, Senegal
Current

53 mins ago

GOGS 240000Z 36006KT CAVOK 21/18 Q1013
Observed
Mar-24 @ 00:00 UTC
Wind
  • 360° at 6 KTS
Visibility
10,000+ meters
Flight Rules
VFR
Cloud Levels
  • Clear skies
Temperature
21°C / 70°F
Dewpoint
18°C / 64°F
Humidity
83%
Altimeter
29.91" Hg
Pressure
1012.92 hPa
Previous

2 hours ago

GOGS 232300Z VRB06KT CAVOK 21/18 Q1013
Observed
Mar-23 @ 23:00 UTC
Wind
  • Variable at 6 KTS
Visibility
10,000+ meters
Flight Rules
VFR
Cloud Levels
  • Clear skies
Temperature
21°C / 70°F
Dewpoint
18°C / 64°F
Humidity
83%
Altimeter
29.91" Hg
Pressure
1012.92 hPa
Previous

3 hours ago

GOGS 232200Z VRB06KT CAVOK 21/18 Q1012
Observed
Mar-23 @ 22:00 UTC
Wind
  • Variable at 6 KTS
Visibility
10,000+ meters
Flight Rules
VFR
Cloud Levels
  • Clear skies
Temperature
21°C / 70°F
Dewpoint
18°C / 64°F
Humidity
83%
Altimeter
29.88" Hg
Pressure
1011.92 hPa